Ackerly, Texas
Current Conditions -  °F | °C
As of 2:55 AM on Thursday 23 Oct 2014 (Local Time) from KBPG Reporting Station
Clear Clear  
Wind Chill: 59°   Ceiling: Unl
Heat Index: 59°   Visibility: 10mi
Dew Point: 55°   Wind: 5mph
Humidity: 89%   Direction: 150°SSE
Pressure: 30.15"   Gusts: NA
Location:  32.53°N, 101.72°W
Report Text: KBPG 230755Z AUTO 15004KT 10SM CLR 15/13 A3015 RMK AO2 T01480130
Loading
Personal Weather Stations






























Interactive Weather Map
Tropical Storm Tracking
New forecast layout! Learn more

10-Day Weather Forecast

Advertisements
Track Severe Weather on mobile